createdAt,value
2018-04-11T00:01:47.158Z,22.41
2018-04-11T00:03:53.026Z,22.36
2018-04-11T00:05:58.551Z,22.47
2018-04-11T00:08:04.196Z,22.62
2018-04-11T00:10:10.305Z,22.72
2018-04-11T00:12:16.435Z,22.83
2018-04-11T00:14:22.408Z,22.81
2018-04-11T00:16:28.863Z,22.87
2018-04-11T00:18:34.826Z,22.92
2018-04-11T00:20:40.063Z,22.94
2018-04-11T00:22:45.607Z,22.97
2018-04-11T00:24:51.343Z,22.99
2018-04-11T00:26:57.138Z,22.98
2018-04-11T00:29:03.038Z,22.77
2018-04-11T00:31:09.198Z,22.48
2018-04-11T00:33:15.234Z,22.53
2018-04-11T00:35:21.261Z,22.52
2018-04-11T00:37:27.582Z,22.35
2018-04-11T00:39:33.418Z,22.48
2018-04-11T00:41:39.883Z,22.39
2018-04-11T00:43:45.730Z,22.35
2018-04-11T00:45:51.577Z,22.25
2018-04-11T00:47:56.937Z,21.88
2018-04-11T00:50:02.684Z,22.05
2018-04-11T00:52:08.436Z,21.97
2018-04-11T00:54:14.280Z,22.20
2018-04-11T00:56:21.046Z,21.94
2018-04-11T00:58:27.077Z,22.04
2018-04-11T01:00:32.377Z,21.85
2018-04-11T01:02:37.953Z,22.01
2018-04-11T01:04:43.194Z,22.05
2018-04-11T01:06:49.221Z,22.07
2018-04-11T01:08:55.520Z,22.00
2018-04-11T01:11:00.943Z,22.32
2018-04-11T01:13:07.006Z,22.20
2018-04-11T01:15:12.337Z,21.85
2018-04-11T01:17:18.098Z,22.19
2018-04-11T01:19:24.021Z,22.22
2018-04-11T01:21:30.318Z,22.11
2018-04-11T01:23:36.211Z,21.98
2018-04-11T01:25:42.429Z,21.87
2018-04-11T01:27:48.292Z,22.02
2018-04-11T01:29:53.614Z,22.10
2018-04-11T01:31:59.801Z,22.27
2018-04-11T01:34:05.597Z,22.43
2018-04-11T01:36:10.883Z,22.36
2018-04-11T01:38:16.851Z,22.09
2018-04-11T01:40:22.758Z,21.85
2018-04-11T01:42:28.620Z,21.58
2018-04-11T01:44:34.757Z,21.63
2018-04-11T01:46:40.507Z,22.16
2018-04-11T01:48:46.127Z,22.30
2018-04-11T01:50:52.252Z,22.44
2018-04-11T01:52:58.237Z,22.41
2018-04-11T01:55:03.844Z,22.20
2018-04-11T01:57:10.078Z,21.90
2018-04-11T01:59:15.570Z,21.92
2018-04-11T02:01:21.576Z,21.89
2018-04-11T02:03:27.186Z,22.11
2018-04-11T02:05:33.333Z,22.12
2018-04-11T02:07:39.386Z,22.32
2018-04-11T02:09:45.296Z,22.16
2018-04-11T02:11:52.210Z,21.79
2018-04-11T02:13:58.871Z,21.71
2018-04-11T02:16:04.893Z,21.84
2018-04-11T02:18:10.401Z,21.74
2018-04-11T02:20:16.750Z,21.67
2018-04-11T02:22:22.410Z,21.23
2018-04-11T02:24:28.358Z,21.08
2018-04-11T02:26:34.729Z,21.38
2018-04-11T02:28:40.431Z,21.51
2018-04-11T02:30:46.291Z,21.70
2018-04-11T02:32:52.622Z,21.97
2018-04-11T02:34:58.574Z,22.01
2018-04-11T02:37:05.047Z,21.92
2018-04-11T02:39:11.203Z,21.71
2018-04-11T02:41:17.594Z,21.87
2018-04-11T02:43:22.801Z,21.51
2018-04-11T02:45:29.291Z,21.54
2018-04-11T02:47:35.188Z,21.63
2018-04-11T02:49:41.287Z,21.60
2018-04-11T02:51:53.228Z,21.27
2018-04-11T02:53:59.034Z,20.68
2018-04-11T02:56:04.394Z,20.89
2018-04-11T02:58:09.966Z,21.16
2018-04-11T03:00:15.390Z,21.15
2018-04-11T03:02:21.229Z,21.12
2018-04-11T03:04:27.120Z,20.83
2018-04-11T03:06:33.636Z,20.79
2018-04-11T03:08:40.116Z,21.07
2018-04-11T03:10:45.985Z,20.71
2018-04-11T03:12:51.347Z,20.73
2018-04-11T03:14:56.958Z,21.00
2018-04-11T03:17:03.191Z,20.92
2018-04-11T03:19:08.714Z,20.79
2018-04-11T03:21:14.119Z,21.00
2018-04-11T03:23:20.115Z,20.84
2018-04-11T03:25:25.727Z,21.10
2018-04-11T03:27:31.093Z,21.46
2018-04-11T03:29:36.784Z,21.69
2018-04-11T03:31:42.506Z,21.82
2018-04-11T03:33:47.786Z,21.83
2018-04-11T03:35:53.911Z,21.55
2018-04-11T03:37:59.746Z,21.04
2018-04-11T03:40:06.101Z,21.12
2018-04-11T03:42:11.841Z,21.40
2018-04-11T03:44:17.710Z,21.47
2018-04-11T03:46:23.760Z,21.37
2018-04-11T03:48:29.661Z,21.34
2018-04-11T03:50:35.678Z,21.40
2018-04-11T03:52:41.369Z,21.42
2018-04-11T03:54:47.158Z,21.38
2018-04-11T03:56:52.747Z,20.96
2018-04-11T03:58:59.109Z,21.34
2018-04-11T04:01:05.376Z,21.43
2018-04-11T04:03:11.614Z,21.39
2018-04-11T04:05:16.893Z,21.29
2018-04-11T04:07:22.553Z,21.28
2018-04-11T04:09:27.849Z,21.38
2018-04-11T04:11:33.466Z,21.45
2018-04-11T04:13:47.188Z,21.22
2018-04-11T04:16:03.261Z,21.00
2018-04-11T04:19:17.067Z,21.02
2018-04-11T04:21:22.486Z,20.95
2018-04-11T04:23:27.766Z,20.65
2018-04-11T04:25:33.632Z,21.13
2018-04-11T04:27:38.985Z,21.37
2018-04-11T04:29:44.313Z,21.33
2018-04-11T04:31:49.922Z,21.14
2018-04-11T04:33:55.161Z,21.00
2018-04-11T04:36:00.606Z,20.77
2018-04-11T04:38:05.846Z,20.41
2018-04-11T04:40:11.559Z,20.56
2018-04-11T04:42:16.810Z,20.76
2018-04-11T04:44:22.055Z,20.46
2018-04-11T04:46:27.622Z,20.59
2018-04-11T04:48:32.872Z,20.45
2018-04-11T04:50:38.358Z,20.36
2018-04-11T04:52:44.462Z,20.56
2018-04-11T04:54:49.747Z,20.57
2018-04-11T04:56:55.102Z,20.40
2018-04-11T04:59:00.762Z,20.44
2018-04-11T05:01:06.394Z,20.53
2018-04-11T05:03:12.408Z,20.42
2018-04-11T05:05:18.506Z,20.58
2018-04-11T05:07:23.969Z,20.17
2018-04-11T05:09:29.150Z,20.60
2018-04-11T05:11:35.091Z,20.32
2018-04-11T05:13:40.530Z,20.30
2018-04-11T05:15:46.389Z,20.67
2018-04-11T05:17:52.713Z,20.55
2018-04-11T05:19:58.503Z,20.44
2018-04-11T05:22:03.897Z,20.64
2018-04-11T05:24:09.888Z,20.82
2018-04-11T05:26:15.158Z,20.59
2018-04-11T05:28:20.638Z,20.79
2018-04-11T05:30:26.182Z,20.70
2018-04-11T05:32:32.131Z,20.09
2018-04-11T05:34:37.486Z,20.26
2018-04-11T05:36:43.127Z,20.74
2018-04-11T05:38:48.342Z,20.67
2018-04-11T05:40:53.596Z,20.65
2018-04-11T05:42:59.114Z,20.86
2018-04-11T05:45:04.370Z,21.09
2018-04-11T05:47:09.883Z,21.09
2018-04-11T05:49:15.443Z,20.91
2018-04-11T05:51:20.717Z,20.83
2018-04-11T05:53:26.055Z,21.19
2018-04-11T05:55:31.599Z,21.00
2018-04-11T05:57:36.970Z,20.98
2018-04-11T05:59:42.333Z,20.70
2018-04-11T06:01:48.685Z,21.32
2018-04-11T06:03:53.998Z,21.58
2018-04-11T06:05:59.358Z,21.49
2018-04-11T06:08:09.215Z,21.35
2018-04-11T06:10:15.002Z,20.99
2018-04-11T06:12:20.277Z,21.24
2018-04-11T06:14:25.817Z,21.59
2018-04-11T06:16:31.127Z,21.59
2018-04-11T06:18:36.415Z,21.62
2018-04-11T06:20:41.966Z,21.03
2018-04-11T06:22:47.278Z,21.43
2018-04-11T06:24:52.962Z,21.93
2018-04-11T06:26:59.270Z,21.97
2018-04-11T06:29:04.645Z,21.86
2018-04-11T06:31:10.747Z,21.98
2018-04-11T06:33:16.340Z,22.23
2018-04-11T06:35:22.122Z,22.08
2018-04-11T06:37:27.482Z,22.16
2018-04-11T06:39:33.557Z,22.09
2018-04-11T06:41:38.980Z,21.60
2018-04-11T06:43:47.389Z,21.60
2018-04-11T06:45:53.582Z,21.77
2018-04-11T06:47:58.926Z,21.83
2018-04-11T06:50:04.227Z,21.30
2018-04-11T06:52:10.582Z,21.58
2018-04-11T06:54:15.907Z,21.64
2018-04-11T06:56:21.246Z,21.50
2018-04-11T06:58:27.126Z,21.61
2018-04-11T07:00:32.420Z,21.40
2018-04-11T07:02:37.909Z,21.73
2018-04-11T07:04:43.462Z,21.84
2018-04-11T07:06:49.066Z,21.59
2018-04-11T07:08:54.857Z,21.85
2018-04-11T07:11:00.081Z,21.54
2018-04-11T07:13:05.681Z,21.82
2018-04-11T07:15:11.660Z,21.56
2018-04-11T07:17:17.386Z,21.13
2018-04-11T07:19:23.596Z,21.75
2018-04-11T07:21:28.966Z,21.73
2018-04-11T07:23:34.875Z,21.59
2018-04-11T07:25:40.524Z,21.93
2018-04-11T07:27:45.826Z,21.78
2018-04-11T07:29:51.731Z,21.61
2018-04-11T07:31:58.179Z,21.73
2018-04-11T07:34:03.450Z,22.03
2018-04-11T07:36:08.775Z,21.95
2018-04-11T07:38:14.365Z,21.43
2018-04-11T07:40:21.051Z,21.60
2018-04-11T07:42:26.895Z,21.70
2018-04-11T07:44:32.941Z,21.94
2018-04-11T07:46:38.154Z,22.35
2018-04-11T07:48:44.746Z,22.46
2018-04-11T07:50:50.405Z,22.63
2018-04-11T07:52:56.296Z,22.45
2018-04-11T07:55:02.438Z,22.64
2018-04-11T07:57:07.790Z,22.54
2018-04-11T07:59:13.798Z,22.56
2018-04-11T08:01:19.066Z,22.35
2018-04-11T08:03:24.981Z,22.63
2018-04-11T08:05:30.478Z,22.71
2018-04-11T08:07:36.155Z,22.40
2018-04-11T08:09:41.523Z,22.15
2018-04-11T08:11:46.886Z,21.90
2018-04-11T08:13:53.177Z,22.22
2018-04-11T08:15:58.605Z,21.75
2018-04-11T08:18:03.900Z,21.70
2018-04-11T08:20:10.665Z,22.04
2018-04-11T08:22:21.658Z,21.78
2018-04-11T08:24:27.095Z,21.83
2018-04-11T08:26:32.971Z,22.18
2018-04-11T08:28:38.418Z,22.37
2018-04-11T08:30:43.761Z,21.95
2018-04-11T08:32:49.638Z,21.86
2018-04-11T08:34:54.965Z,22.41
2018-04-11T08:37:00.926Z,22.07
2018-04-11T08:39:07.580Z,21.80
2018-04-11T08:41:12.947Z,21.96
2018-04-11T08:43:18.307Z,21.77
2018-04-11T08:45:23.890Z,21.45
2018-04-11T08:47:29.550Z,21.53
2018-04-11T08:49:37.778Z,21.82
2018-04-11T08:51:43.566Z,21.61
2018-04-11T08:53:49.077Z,21.96
2018-04-11T08:55:54.404Z,22.21
2018-04-11T08:57:59.741Z,22.26
2018-04-11T09:00:05.559Z,22.22
2018-04-11T09:02:10.849Z,22.24
2018-04-11T09:04:16.500Z,22.03
2018-04-11T09:06:22.106Z,22.33
2018-04-11T09:08:27.902Z,22.27
2018-04-11T09:10:33.286Z,22.68
2018-04-11T09:12:38.523Z,22.20
2018-04-11T09:14:44.053Z,22.01
2018-04-11T09:16:49.375Z,21.51
2018-04-11T09:18:54.709Z,21.85
2018-04-11T09:21:00.410Z,22.27
2018-04-11T09:23:05.697Z,22.49
2018-04-11T09:25:11.789Z,22.16
2018-04-11T09:27:17.942Z,21.79
2018-04-11T09:29:23.165Z,21.23
2018-04-11T09:31:29.265Z,21.31
2018-04-11T09:33:34.881Z,21.27
2018-04-11T09:35:40.194Z,21.33
2018-04-11T09:37:45.486Z,22.13
2018-04-11T09:39:51.354Z,22.19
2018-04-11T09:41:56.784Z,22.09
2018-04-11T09:44:02.802Z,22.00
2018-04-11T09:46:09.002Z,22.03
2018-04-11T09:48:14.313Z,21.63
2018-04-11T09:50:20.178Z,21.58
2018-04-11T09:52:25.808Z,20.80
2018-04-11T09:54:31.188Z,21.30
2018-04-11T09:56:36.507Z,21.49
2018-04-11T09:58:42.164Z,21.71
2018-04-11T10:00:51.547Z,21.53
2018-04-11T10:03:00.793Z,21.65
2018-04-11T10:05:06.473Z,21.80
2018-04-11T10:07:11.754Z,21.35
2018-04-11T10:09:17.178Z,21.78
2018-04-11T10:11:22.762Z,21.81
2018-04-11T10:13:28.377Z,21.29
2018-04-11T10:15:33.625Z,21.59
2018-04-11T10:17:39.308Z,21.40
2018-04-11T10:19:45.027Z,21.66
2018-04-11T10:21:50.614Z,21.83
2018-04-11T10:23:56.458Z,22.88
2018-04-11T10:26:01.929Z,23.32
2018-04-11T10:28:07.298Z,23.61
2018-04-11T10:30:12.970Z,23.81
2018-04-11T10:32:18.326Z,23.92
2018-04-11T10:34:23.574Z,24.00
2018-04-11T10:36:29.388Z,23.97
2018-04-11T10:38:34.673Z,23.99
2018-04-11T10:40:40.050Z,24.02
2018-04-11T10:42:46.306Z,24.04
2018-04-11T10:44:51.603Z,24.09
2018-04-11T10:46:56.988Z,24.15
2018-04-11T10:49:02.526Z,24.18
2018-04-11T10:51:08.028Z,24.19
2018-04-11T10:53:13.328Z,24.19
2018-04-11T10:55:23.087Z,24.23
2018-04-11T10:57:28.518Z,24.28
2018-04-11T10:59:33.905Z,24.29
2018-04-11T11:01:39.855Z,24.28
2018-04-11T11:03:45.750Z,24.32
2018-04-11T11:05:51.959Z,24.38
2018-04-11T11:07:57.610Z,24.43
2018-04-11T11:10:03.288Z,24.54
2018-04-11T11:12:08.850Z,24.64
2018-04-11T11:14:14.638Z,24.73
2018-04-11T11:16:19.880Z,24.73
2018-04-11T11:18:25.199Z,24.72
2018-04-11T11:20:30.806Z,24.70
2018-04-11T11:22:36.307Z,24.75
2018-04-11T11:24:41.629Z,24.84
2018-04-11T11:26:47.201Z,24.98
2018-04-11T11:28:52.847Z,25.12
2018-04-11T11:30:58.046Z,25.29
2018-04-11T11:33:03.663Z,25.37
2018-04-11T11:35:09.191Z,25.38
2018-04-11T11:37:14.613Z,25.37
2018-04-11T11:39:20.413Z,25.30
2018-04-11T11:41:25.778Z,25.22
2018-04-11T11:43:31.580Z,25.19
2018-04-11T11:45:37.151Z,25.18
2018-04-11T11:47:42.512Z,25.28
2018-04-11T11:49:47.935Z,25.47
2018-04-11T11:51:53.548Z,25.56
2018-04-11T11:53:58.999Z,25.60
2018-04-11T11:56:04.277Z,25.78
2018-04-11T11:58:09.911Z,25.85
2018-04-11T12:00:15.754Z,25.77
2018-04-11T12:02:21.398Z,26.00
2018-04-11T12:04:27.122Z,26.29
2018-04-11T12:06:32.457Z,26.18
2018-04-11T12:08:37.822Z,26.00
2018-04-11T12:10:43.467Z,25.97
2018-04-11T12:12:48.723Z,26.00
2018-04-11T12:14:54.106Z,26.39
2018-04-11T12:16:59.720Z,29.34
2018-04-11T12:19:05.005Z,30.76
2018-04-11T12:21:10.338Z,31.37
2018-04-11T12:23:15.869Z,31.75
2018-04-11T12:25:21.182Z,32.01
2018-04-11T12:27:26.483Z,32.05
2018-04-11T12:29:32.099Z,32.21
2018-04-11T12:31:37.347Z,32.66
2018-04-11T12:33:43.632Z,32.98
2018-04-11T12:35:49.213Z,33.34
2018-04-11T12:37:54.542Z,33.45
2018-04-11T12:39:59.983Z,33.64
2018-04-11T12:42:05.640Z,33.71
2018-04-11T12:44:10.978Z,33.92
2018-04-11T12:46:18.554Z,34.19
2018-04-11T12:48:24.230Z,34.25
2018-04-11T12:50:29.493Z,34.40
2018-04-11T12:52:35.370Z,34.62
2018-04-11T12:54:41.082Z,34.60
2018-04-11T12:56:46.381Z,34.47
2018-04-11T12:58:51.730Z,34.60
2018-04-11T13:00:57.278Z,34.62
2018-04-11T13:03:02.834Z,34.62
2018-04-11T13:05:08.371Z,34.39
2018-04-11T13:07:14.106Z,31.44
2018-04-11T13:09:19.640Z,29.69
2018-04-11T13:11:25.113Z,29.80
2018-04-11T13:13:30.743Z,29.87
2018-04-11T13:15:36.370Z,31.06
2018-04-11T13:17:41.855Z,32.68
2018-04-11T13:19:47.902Z,33.22
2018-04-11T13:21:53.417Z,30.44
2018-04-11T13:23:58.834Z,29.18
2018-04-11T13:26:04.617Z,28.65
2018-04-11T13:28:09.890Z,28.36
2018-04-11T13:30:15.294Z,28.15
2018-04-11T13:32:20.937Z,28.04
2018-04-11T13:34:26.557Z,27.97
2018-04-11T13:36:31.899Z,28.37
